Time;durP1;ratioP1;P1;durP2;ratioP2;P2;SDS_P1;SDS_P2;PMS_P1;PMS_P2;Temp;Humidity;BMP_temperature;BMP_pressure;BME280_temperature;BME280_humidity;BME280_pressure;Samples;Min_cycle;Max_cycle;Signal;HPM_P1;HPM_P2
2021/06/18 00:00:20;;;;;;;3.10;2.80;;;21.90;66.80;;;;;;5068786;28;20037;-71
2021/06/18 00:02:46;;;;;;;3.28;2.60;;;21.90;66.60;;;;;;5070489;28;20504;-71
2021/06/18 00:05:13;;;;;;;3.05;2.50;;;21.80;66.60;;;;;;5070917;28;20093;-71
2021/06/18 00:07:40;;;;;;;3.83;2.45;;;21.80;66.70;;;;;;5064112;28;20029;-71
2021/06/18 00:10:08;;;;;;;2.88;2.58;;;21.80;66.90;;;;;;5071548;28;20040;-71
2021/06/18 00:12:34;;;;;;;2.70;2.50;;;21.70;67.10;;;;;;5075016;28;20115;-70
2021/06/18 00:15:00;;;;;;;4.82;2.60;;;21.70;67.20;;;;;;5073754;28;20024;-70
2021/06/18 00:17:27;;;;;;;2.67;2.47;;;21.60;67.30;;;;;;5074727;28;20032;-71
2021/06/18 00:19:52;;;;;;;3.70;2.70;;;21.50;67.70;;;;;;5074042;28;20127;-70
2021/06/18 00:22:18;;;;;;;2.90;2.60;;;21.50;68.30;;;;;;5068769;28;20035;-71
2021/06/18 00:24:44;;;;;;;2.40;2.20;;;21.40;68.60;;;;;;5073984;28;20107;-70
2021/06/18 00:27:09;;;;;;;2.72;2.53;;;21.30;68.90;;;;;;5074140;28;20039;-70
2021/06/18 00:29:35;;;;;;;3.25;2.95;;;21.30;69.20;;;;;;5074498;28;20182;-71
2021/06/18 00:32:00;;;;;;;2.90;2.63;;;21.20;69.40;;;;;;5073491;28;20110;-71
2021/06/18 00:34:26;;;;;;;2.92;2.63;;;21.20;69.90;;;;;;5074301;28;20066;-70
2021/06/18 00:36:52;;;;;;;2.75;2.55;;;21.20;70.10;;;;;;5073820;28;20044;-70
2021/06/18 00:39:17;;;;;;;3.05;2.60;;;21.10;70.20;;;;;;5074478;28;20082;-71
2021/06/18 00:41:43;;;;;;;3.33;2.85;;;21.00;70.50;;;;;;5073952;28;20438;-71
2021/06/18 00:44:08;;;;;;;3.70;2.88;;;21.00;70.70;;;;;;5074123;28;20363;-70
2021/06/18 00:46:34;;;;;;;3.05;2.60;;;20.90;70.80;;;;;;5074034;28;20470;-70
2021/06/18 00:49:01;;;;;;;3.03;2.70;;;20.90;71.00;;;;;;5073204;28;20068;-71
2021/06/18 00:51:27;;;;;;;4.05;3.00;;;20.80;71.00;;;;;;5073271;28;20033;-70
2021/06/18 00:53:53;;;;;;;3.63;2.78;;;20.80;70.60;;;;;;5071815;28;20056;-71
2021/06/18 00:56:20;;;;;;;4.50;3.03;;;20.80;70.20;;;;;;5073901;28;20113;-70
2021/06/18 00:58:46;;;;;;;3.22;2.50;;;20.80;70.10;;;;;;5073536;28;20037;-70
2021/06/18 01:01:11;;;;;;;3.25;2.78;;;20.80;70.10;;;;;;5074054;28;20020;-70
2021/06/18 01:03:37;;;;;;;2.63;2.42;;;20.80;70.10;;;;;;5074644;28;20086;-70
2021/06/18 01:06:03;;;;;;;3.05;2.75;;;20.80;70.30;;;;;;5072644;28;20044;-70
2021/06/18 01:08:54;;;;;;;3.17;2.83;;;20.80;70.60;;;;;;5073764;28;20036;-70
2021/06/18 01:11:37;;;;;;;7.50;2.78;;;20.80;70.50;;;;;;5073882;28;20025;-70
2021/06/18 01:14:24;;;;;;;3.38;2.80;;;20.80;70.20;;;;;;5072985;28;20025;-70
2021/06/18 01:17:14;;;;;;;5.60;3.22;;;20.70;70.50;;;;;;5072757;28;20043;-70
2021/06/18 01:19:49;;;;;;;4.43;3.20;;;20.70;71.00;;;;;;5073922;28;20032;-70
2021/06/18 01:22:16;;;;;;;2.90;2.70;;;20.70;71.70;;;;;;5063571;28;20036;-71
2021/06/18 01:25:15;;;;;;;3.70;3.08;;;20.60;72.10;;;;;;5069372;28;20028;-70
2021/06/18 01:28:10;;;;;;;4.70;3.15;;;20.50;72.60;;;;;;5065962;28;20126;-70
2021/06/18 01:30:36;;;;;;;5.25;3.20;;;20.40;72.70;;;;;;5073678;28;20077;-70
2021/06/18 01:33:03;;;;;;;3.78;2.85;;;20.40;72.80;;;;;;5072727;28;20067;-70
2021/06/18 01:35:37;;;;;;;3.55;3.25;;;20.30;73.20;;;;;;5073586;28;20043;-70
2021/06/18 01:38:06;;;;;;;3.40;3.03;;;20.20;73.90;;;;;;5072545;28;20538;-69
2021/06/18 01:40:33;;;;;;;4.00;3.30;;;20.20;74.50;;;;;;5071883;28;20021;-70
2021/06/18 01:43:01;;;;;;;2.80;2.60;;;20.20;75.00;;;;;;5071929;28;20025;-70
2021/06/18 01:45:29;;;;;;;3.58;2.83;;;20.10;75.30;;;;;;5073138;28;20036;-70
2021/06/18 01:47:56;;;;;;;3.25;2.80;;;20.10;75.90;;;;;;5069162;28;20028;-70
2021/06/18 01:50:25;;;;;;;3.78;3.28;;;20.00;76.20;;;;;;5070159;28;20059;-69
2021/06/18 01:53:05;;;;;;;3.83;2.92;;;20.00;76.70;;;;;;5069223;28;20044;-69
2021/06/18 01:55:32;;;;;;;3.60;3.30;;;20.00;77.00;;;;;;5066578;28;20025;-70
2021/06/18 01:58:01;;;;;;;3.47;2.47;;;19.90;77.20;;;;;;5072405;28;20478;-70
2021/06/18 02:00:29;;;;;;;6.43;3.20;;;19.90;77.60;;;;;;5072782;28;20420;-70
2021/06/18 02:03:00;;;;;;;3.50;3.20;;;19.80;77.40;;;;;;5071831;28;20028;-69
2021/06/18 02:05:27;;;;;;;4.80;3.00;;;19.80;77.80;;;;;;5072749;28;20529;-70
2021/06/18 02:07:56;;;;;;;3.28;2.70;;;19.80;78.10;;;;;;5046118;28;20024;-70
2021/06/18 02:10:23;;;;;;;4.53;3.10;;;19.80;78.60;;;;;;5073240;28;20032;-70
2021/06/18 02:12:49;;;;;;;4.85;3.38;;;19.80;78.60;;;;;;5030887;28;20025;-69
2021/06/18 02:15:17;;;;;;;6.18;3.28;;;19.80;78.20;;;;;;5071473;28;20107;-70
2021/06/18 02:17:44;;;;;;;4.25;3.00;;;19.70;77.90;;;;;;5072115;28;20032;-70
2021/06/18 02:20:12;;;;;;;4.32;2.95;;;19.80;77.60;;;;;;5071961;28;20162;-69
2021/06/18 02:22:40;;;;;;;3.20;2.90;;;19.70;77.60;;;;;;5072058;28;20512;-69
2021/06/18 02:25:07;;;;;;;3.95;3.10;;;19.80;77.90;;;;;;5071799;28;20025;-69
2021/06/18 02:27:34;;;;;;;3.33;3.03;;;19.70;78.20;;;;;;5068668;28;20113;-69
2021/06/18 02:30:01;;;;;;;3.83;2.97;;;19.70;78.70;;;;;;5065759;28;20482;-70
2021/06/18 02:32:30;;;;;;;6.53;3.15;;;19.70;78.90;;;;;;5063665;28;20036;-70
2021/06/18 02:34:57;;;;;;;4.65;3.20;;;19.60;79.60;;;;;;5061546;28;20029;-70
2021/06/18 02:37:23;;;;;;;5.38;3.60;;;19.60;79.60;;;;;;5063344;28;20028;-70
2021/06/18 02:39:49;;;;;;;4.93;3.25;;;19.60;80.10;;;;;;5064196;28;20440;-69
2021/06/18 02:42:14;;;;;;;3.53;3.22;;;19.50;80.60;;;;;;5072204;28;20024;-69
2021/06/18 02:44:40;;;;;;;3.60;3.05;;;19.50;81.10;;;;;;5071781;28;20108;-70
2021/06/18 02:47:24;;;;;;;3.95;2.85;;;19.50;81.30;;;;;;5070839;28;20032;-69
2021/06/18 02:50:16;;;;;;;4.85;3.42;;;19.40;82.20;;;;;;5070852;28;20435;-70
2021/06/18 02:52:56;;;;;;;5.70;4.03;;;19.40;82.30;;;;;;5055857;28;20049;-69
2021/06/18 02:55:36;;;;;;;3.78;3.47;;;19.40;82.70;;;;;;5071794;28;20043;-69
2021/06/18 02:58:20;;;;;;;3.70;3.40;;;19.30;83.00;;;;;;5064318;28;20350;-70
2021/06/18 03:00:47;;;;;;;6.85;3.13;;;19.30;83.60;;;;;;5071772;28;20470;-69
2021/06/18 03:03:18;;;;;;;4.45;3.40;;;19.30;83.90;;;;;;5071434;28;20077;-69
2021/06/18 03:05:47;;;;;;;4.82;3.58;;;19.20;84.00;;;;;;5071747;28;20113;-70
2021/06/18 03:08:15;;;;;;;3.65;3.33;;;19.20;84.40;;;;;;5071177;28;20024;-69
2021/06/18 03:10:43;;;;;;;9.20;4.82;;;19.20;84.80;;;;;;5071786;28;20032;-69
2021/06/18 03:13:31;;;;;;;8.65;6.00;;;19.20;88.30;;;;;;5070751;28;20032;-69
2021/06/18 03:15:57;;;;;;;7.90;4.65;;;19.30;90.40;;;;;;5065325;28;20033;-69
2021/06/18 03:18:24;;;;;;;6.70;4.28;;;19.40;90.10;;;;;;5071264;28;20366;-69
2021/06/18 03:20:59;;;;;;;7.70;4.88;;;19.50;89.80;;;;;;5065506;28;20036;-69
2021/06/18 03:23:26;;;;;;;5.85;4.28;;;19.50;89.70;;;;;;5065721;28;20033;-69
2021/06/18 03:25:53;;;;;;;7.05;4.45;;;19.60;90.00;;;;;;5070560;28;20500;-69
2021/06/18 03:28:23;;;;;;;5.90;4.55;;;19.60;89.90;;;;;;5067157;28;20047;-70
2021/06/18 03:30:50;;;;;;;7.13;4.88;;;19.70;90.00;;;;;;5071385;28;20028;-70
2021/06/18 03:33:18;;;;;;;5.38;4.57;;;19.70;90.10;;;;;;5071306;28;20031;-70
2021/06/18 03:35:45;;;;;;;7.20;4.57;;;19.70;90.10;;;;;;5070956;28;20074;-69
2021/06/18 03:38:12;;;;;;;5.03;4.35;;;19.70;90.10;;;;;;5070367;28;20028;-69
2021/06/18 03:40:39;;;;;;;5.13;4.72;;;19.80;90.00;;;;;;5071453;28;20024;-69
2021/06/18 03:43:06;;;;;;;5.07;4.40;;;19.80;90.10;;;;;;5070098;28;20033;-69
2021/06/18 03:45:32;;;;;;;6.35;4.93;;;19.70;90.20;;;;;;5071138;28;20044;-69
2021/06/18 03:48:00;;;;;;;7.15;5.22;;;19.70;90.50;;;;;;5069034;28;20044;-69
2021/06/18 03:50:26;;;;;;;8.23;4.60;;;19.70;90.60;;;;;;5070346;28;20052;-69
2021/06/18 03:52:52;;;;;;;9.35;5.35;;;19.70;90.40;;;;;;5069987;28;20040;-69
2021/06/18 03:55:18;;;;;;;5.80;4.25;;;19.80;90.50;;;;;;5070981;28;20031;-69
2021/06/18 03:57:47;;;;;;;5.90;4.63;;;19.80;90.30;;;;;;5071275;28;20024;-69
2021/06/18 04:00:14;;;;;;;5.22;4.20;;;19.80;90.40;;;;;;5069928;28;20027;-69
2021/06/18 04:02:40;;;;;;;5.07;4.32;;;19.80;90.40;;;;;;5071168;28;20166;-71
2021/06/18 04:05:07;;;;;;;4.40;4.00;;;19.80;90.40;;;;;;5070251;28;20116;-72
2021/06/18 04:07:33;;;;;;;4.55;4.07;;;19.80;90.60;;;;;;5071067;28;20020;-72
2021/06/18 04:10:02;;;;;;;5.65;4.20;;;19.90;90.80;;;;;;5070336;28;20021;-69
2021/06/18 04:12:29;;;;;;;5.80;4.15;;;19.90;90.80;;;;;;5071043;28;20386;-69
2021/06/18 04:14:56;;;;;;;8.30;4.72;;;19.90;90.60;;;;;;5069572;28;20020;-69
2021/06/18 04:17:22;;;;;;;7.55;4.63;;;19.90;90.80;;;;;;5068616;28;20041;-69
2021/06/18 04:19:50;;;;;;;6.00;4.30;;;19.90;91.10;;;;;;5066400;28;20396;-70
2021/06/18 04:22:25;;;;;;;4.95;4.10;;;19.90;91.00;;;;;;5063036;28;20028;-70
2021/06/18 04:24:51;;;;;;;4.60;3.58;;;20.00;91.10;;;;;;5070424;28;20029;-70
2021/06/18 04:27:16;;;;;;;4.78;3.88;;;20.00;90.80;;;;;;5069387;28;20032;-71
2021/06/18 04:29:42;;;;;;;5.30;4.68;;;20.10;90.30;;;;;;5070719;28;20527;-70
2021/06/18 04:32:08;;;;;;;5.10;4.22;;;20.20;90.40;;;;;;5070083;28;20527;-70
2021/06/18 04:34:33;;;;;;;6.10;4.22;;;20.30;90.30;;;;;;5070698;28;20436;-70
2021/06/18 04:37:00;;;;;;;4.55;4.15;;;20.40;89.90;;;;;;5069832;28;20565;-79
2021/06/18 04:39:25;;;;;;;4.97;4.38;;;20.50;89.30;;;;;;5060676;28;20065;-69
2021/06/18 04:41:51;;;;;;;7.40;4.55;;;20.60;88.70;;;;;;5070198;28;20128;-68
2021/06/18 04:44:17;;;;;;;5.22;4.70;;;20.60;88.40;;;;;;5070770;28;20032;-69
2021/06/18 04:46:42;;;;;;;5.30;4.50;;;20.70;88.40;;;;;;5070320;28;20040;-70
2021/06/18 04:49:08;;;;;;;8.82;4.90;;;20.90;87.90;;;;;;5066457;28;20033;-69
2021/06/18 04:51:34;;;;;;;4.55;4.10;;;21.00;86.80;;;;;;5070307;28;20029;-69
2021/06/18 04:53:59;;;;;;;5.00;4.28;;;21.10;86.10;;;;;;5069921;28;20052;-69
2021/06/18 04:56:25;;;;;;;5.53;4.47;;;21.20;85.70;;;;;;5072151;28;20028;-69
2021/06/18 04:58:51;;;;;;;6.35;4.65;;;21.30;85.50;;;;;;5073557;28;20532;-67
2021/06/18 05:01:17;;;;;;;5.72;4.20;;;21.40;85.80;;;;;;5073196;28;20362;-69
2021/06/18 05:03:42;;;;;;;6.53;4.85;;;21.50;85.20;;;;;;5073882;28;20064;-69
2021/06/18 05:06:08;;;;;;;6.38;5.10;;;21.60;84.70;;;;;;5072539;28;20504;-69
2021/06/18 05:08:34;;;;;;;7.25;5.07;;;21.80;84.20;;;;;;5066321;28;20020;-69
2021/06/18 05:10:59;;;;;;;12.25;5.75;;;21.90;83.40;;;;;;5072646;28;20032;-69
2021/06/18 05:13:25;;;;;;;9.00;5.82;;;22.10;82.20;;;;;;5072257;28;20432;-69
2021/06/18 05:15:51;;;;;;;8.43;4.65;;;22.20;81.70;;;;;;5073713;28;20048;-68
2021/06/18 05:18:16;;;;;;;5.35;4.53;;;22.30;81.40;;;;;;5071774;28;20104;-69
2021/06/18 05:20:42;;;;;;;10.18;5.32;;;22.40;81.20;;;;;;5069519;28;20036;-68
2021/06/18 05:23:09;;;;;;;8.80;5.53;;;22.50;79.80;;;;;;5072670;28;20036;-68
2021/06/18 05:25:35;;;;;;;11.48;6.90;;;22.60;79.50;;;;;;5073161;28;20105;-68
2021/06/18 05:28:01;;;;;;;8.82;6.43;;;22.70;79.60;;;;;;5072428;28;20024;-68
2021/06/18 05:30:27;;;;;;;10.15;6.57;;;22.80;80.20;;;;;;5073504;28;20021;-68
2021/06/18 05:32:52;;;;;;;12.52;6.53;;;22.90;80.60;;;;;;5073419;28;20025;-68
2021/06/18 05:35:19;;;;;;;11.70;6.28;;;22.90;80.80;;;;;;5072900;28;20107;-68
2021/06/18 05:37:45;;;;;;;11.05;6.35;;;22.90;80.50;;;;;;5066880;28;20028;-69
2021/06/18 05:40:12;;;;;;;11.43;6.38;;;23.00;80.00;;;;;;5072606;28;20096;-70
2021/06/18 05:42:37;;;;;;;6.43;5.53;;;23.00;79.90;;;;;;5073508;28;20031;-70
2021/06/18 05:45:05;;;;;;;8.77;5.65;;;23.10;79.80;;;;;;5072721;28;20021;-70
2021/06/18 05:47:30;;;;;;;7.03;5.10;;;23.20;79.80;;;;;;5073037;28;20382;-70
2021/06/18 05:49:56;;;;;;;7.72;5.60;;;23.30;79.50;;;;;;5065953;28;20044;-69
2021/06/18 05:52:22;;;;;;;7.50;5.65;;;23.40;78.30;;;;;;5070791;28;20107;-69
2021/06/18 05:54:47;;;;;;;7.03;5.38;;;23.50;77.00;;;;;;5073260;28;20037;-70
2021/06/18 05:57:13;;;;;;;8.50;5.70;;;23.70;76.10;;;;;;5072350;28;20040;-70
2021/06/18 05:59:39;;;;;;;12.13;5.60;;;23.90;76.60;;;;;;5072758;28;20024;-70
2021/06/18 06:02:04;;;;;;;9.80;6.38;;;24.00;76.20;;;;;;5072462;28;20070;-76
2021/06/18 06:04:30;;;;;;;8.23;5.85;;;24.20;75.50;;;;;;5054640;28;20056;-78
2021/06/18 06:06:56;;;;;;;8.15;5.22;;;24.40;75.40;;;;;;5071183;28;20032;-71
2021/06/18 06:09:21;;;;;;;7.30;5.70;;;24.50;75.70;;;;;;5071431;28;20029;-67
2021/06/18 06:11:47;;;;;;;6.38;5.70;;;24.50;75.70;;;;;;5072780;28;20024;-68
2021/06/18 06:14:17;;;;;;;12.50;5.35;;;24.70;75.10;;;;;;5072170;28;20128;-68
2021/06/18 06:16:43;;;;;;;6.55;5.03;;;24.80;73.30;;;;;;5072310;28;20111;-68
2021/06/18 06:19:09;;;;;;;5.80;4.40;;;25.00;71.50;;;;;;5038169;28;20092;-68
2021/06/18 06:21:35;;;;;;;7.70;4.80;;;25.10;69.10;;;;;;5070997;28;20033;-68
2021/06/18 06:24:00;;;;;;;4.72;4.28;;;25.20;67.50;;;;;;5073143;28;20029;-68
2021/06/18 06:26:26;;;;;;;6.30;3.80;;;25.30;68.00;;;;;;5068956;28;20040;-68
2021/06/18 06:28:52;;;;;;;7.28;4.78;;;25.50;66.90;;;;;;5072892;28;20033;-68
2021/06/18 06:31:18;;;;;;;9.23;5.07;;;25.50;66.70;;;;;;5068353;28;20059;-68
2021/06/18 06:33:43;;;;;;;6.88;5.20;;;25.70;66.40;;;;;;5055513;28;20370;-68
2021/06/18 06:36:09;;;;;;;7.50;5.45;;;25.80;66.30;;;;;;5070666;28;20032;-68
2021/06/18 06:38:36;;;;;;;9.63;5.13;;;25.90;66.50;;;;;;5072377;28;20475;-68
2021/06/18 06:41:02;;;;;;;14.60;4.68;;;26.00;66.00;;;;;;5062537;28;20416;-68
2021/06/18 06:43:28;;;;;;;6.05;4.70;;;26.10;66.50;;;;;;5072929;28;20031;-68
2021/06/18 06:45:53;;;;;;;8.80;4.78;;;26.20;65.20;;;;;;5072051;28;20040;-68
2021/06/18 06:48:19;;;;;;;12.55;4.65;;;26.20;66.10;;;;;;5071641;28;20457;-68
2021/06/18 06:50:45;;;;;;;10.60;4.13;;;26.30;65.00;;;;;;5071930;28;20032;-68
2021/06/18 06:53:10;;;;;;;6.72;3.88;;;26.50;63.20;;;;;;5066272;28;20107;-68
2021/06/18 06:55:37;;;;;;;7.38;4.60;;;26.50;62.90;;;;;;5069634;28;20062;-68
2021/06/18 06:58:06;;;;;;;13.93;4.72;;;26.70;63.00;;;;;;5071628;28;20032;-68
2021/06/18 07:00:32;;;;;;;9.65;4.50;;;26.90;62.00;;;;;;5072041;28;20090;-68
2021/06/18 07:02:57;;;;;;;6.95;4.38;;;26.90;62.00;;;;;;5070900;28;20036;-68
2021/06/18 07:05:23;;;;;;;8.88;4.30;;;26.90;62.90;;;;;;5071007;28;20462;-68
2021/06/18 07:07:49;;;;;;;7.53;4.07;;;26.90;62.50;;;;;;5071400;28;20051;-68
2021/06/18 07:10:15;;;;;;;4.85;4.25;;;27.10;62.60;;;;;;5070621;28;20028;-68
2021/06/18 07:12:41;;;;;;;7.13;4.50;;;27.10;62.50;;;;;;5070648;28;20029;-68
2021/06/18 07:15:07;;;;;;;9.45;5.32;;;27.20;62.60;;;;;;5070446;28;20082;-68
2021/06/18 07:17:33;;;;;;;6.78;4.93;;;27.30;62.80;;;;;;5071815;28;20032;-68
2021/06/18 07:20:01;;;;;;;9.20;5.13;;;27.40;62.00;;;;;;5057656;28;20048;-68
2021/06/18 07:22:27;;;;;;;8.43;4.72;;;27.50;61.70;;;;;;5070629;28;20112;-69
2021/06/18 07:24:53;;;;;;;8.90;4.88;;;27.50;61.90;;;;;;5070765;28;20064;-69
2021/06/18 07:27:20;;;;;;;7.93;5.32;;;27.60;63.50;;;;;;5064869;28;20067;-69
2021/06/18 07:29:46;;;;;;;9.70;5.20;;;27.70;63.20;;;;;;5071176;28;20109;-69
2021/06/18 07:32:12;;;;;;;30.13;5.57;;;27.70;63.20;;;;;;5071051;28;20032;-69
2021/06/18 07:34:38;;;;;;;7.95;4.05;;;27.70;63.40;;;;;;5071833;28;20021;-69
2021/06/18 07:37:05;;;;;;;8.70;4.47;;;27.80;62.40;;;;;;5071297;28;20029;-69
2021/06/18 07:39:31;;;;;;;39.95;6.53;;;27.90;62.00;;;;;;5070948;28;20384;-69
2021/06/18 07:41:57;;;;;;;31.48;5.35;;;28.00;62.30;;;;;;5070272;28;20036;-69
2021/06/18 07:44:23;;;;;;;9.85;4.53;;;28.00;62.50;;;;;;5070229;28;20032;-69
2021/06/18 07:46:49;;;;;;;12.60;4.53;;;28.20;60.90;;;;;;5071138;28;20044;-69
2021/06/18 07:49:14;;;;;;;9.05;4.72;;;28.20;61.60;;;;;;5069810;28;20381;-69
2021/06/18 07:51:40;;;;;;;5.45;4.32;;;28.30;61.40;;;;;;5066674;28;20036;-70
2021/06/18 07:54:06;;;;;;;8.80;4.70;;;28.30;60.40;;;;;;5070191;28;20051;-69
2021/06/18 07:56:34;;;;;;;8.23;4.38;;;28.40;59.60;;;;;;5070444;28;20040;-69
2021/06/18 07:59:00;;;;;;;10.30;5.00;;;28.50;59.20;;;;;;5070158;28;20028;-70
2021/06/18 08:01:26;;;;;;;9.07;4.70;;;28.70;58.70;;;;;;5070368;28;20028;-69
2021/06/18 08:03:52;;;;;;;10.10;4.72;;;28.70;56.20;;;;;;5070820;28;20377;-69
2021/06/18 08:06:18;;;;;;;8.70;5.30;;;28.70;57.20;;;;;;5070249;28;20117;-69
2021/06/18 08:08:45;;;;;;;9.52;5.70;;;28.70;56.80;;;;;;5069920;28;20024;-69
2021/06/18 08:11:11;;;;;;;8.15;4.65;;;28.60;57.60;;;;;;5069761;28;20108;-69
2021/06/18 08:13:37;;;;;;;8.98;4.82;;;28.60;58.10;;;;;;5070724;28;20517;-69
2021/06/18 08:16:04;;;;;;;9.55;5.63;;;28.60;57.80;;;;;;5069813;28;20111;-69
2021/06/18 08:18:34;;;;;;;8.50;5.43;;;28.80;56.80;;;;;;5068526;28;20032;-69
2021/06/18 08:21:00;;;;;;;5.80;4.65;;;28.80;56.20;;;;;;5063125;28;20541;-69
2021/06/18 08:23:26;;;;;;;10.20;6.43;;;28.90;56.90;;;;;;5070213;28;20044;-69
2021/06/18 08:25:51;;;;;;;6.07;4.72;;;29.00;55.70;;;;;;5070635;28;20484;-69
2021/06/18 08:28:18;;;;;;;9.15;5.63;;;29.00;55.80;;;;;;5069384;28;20152;-66
2021/06/18 08:30:43;;;;;;;6.18;5.05;;;29.20;56.10;;;;;;5070779;28;20584;-67
2021/06/18 08:33:09;;;;;;;9.55;5.07;;;29.10;56.20;;;;;;5073114;28;20148;-67
2021/06/18 08:35:35;;;;;;;6.88;4.70;;;29.20;55.90;;;;;;5073737;28;20032;-67
2021/06/18 08:38:02;;;;;;;6.50;5.00;;;29.20;55.80;;;;;;5073843;28;20055;-67
2021/06/18 08:40:29;;;;;;;7.65;5.22;;;29.20;55.90;;;;;;5073541;28;20039;-67
2021/06/18 08:42:55;;;;;;;9.55;5.38;;;29.30;56.50;;;;;;5074219;28;20028;-67
2021/06/18 08:45:21;;;;;;;13.75;5.45;;;29.50;55.60;;;;;;5073118;28;20025;-67
2021/06/18 08:47:49;;;;;;;11.13;5.45;;;29.60;55.70;;;;;;5073542;28;20114;-67
2021/06/18 08:50:22;;;;;;;8.35;5.07;;;29.80;56.00;;;;;;5072328;28;20035;-67
2021/06/18 08:52:49;;;;;;;5.95;4.85;;;30.00;54.30;;;;;;5065564;28;20102;-67
2021/06/18 08:55:20;;;;;;;10.60;5.70;;;30.00;54.80;;;;;;5073239;28;20031;-67
2021/06/18 08:57:55;;;;;;;5.97;5.40;;;30.10;54.50;;;;;;5073809;28;20032;-67
2021/06/18 09:00:22;;;;;;;10.85;5.47;;;30.10;54.80;;;;;;5064834;28;20036;-67
2021/06/18 09:02:48;;;;;;;9.15;5.65;;;30.20;54.50;;;;;;5073862;28;20052;-67
2021/06/18 09:05:15;;;;;;;5.53;4.97;;;30.30;54.10;;;;;;5073197;28;20549;-67
2021/06/18 09:07:59;;;;;;;7.43;5.43;;;30.40;53.70;;;;;;5066566;28;20100;-67
2021/06/18 09:10:36;;;;;;;7.63;5.45;;;30.60;54.40;;;;;;5054242;28;20087;-67
2021/06/18 09:13:22;;;;;;;16.63;6.03;;;30.70;53.60;;;;;;5071749;28;20028;-67
2021/06/18 09:15:56;;;;;;;9.45;5.82;;;30.70;54.40;;;;;;5067806;28;20051;-67
2021/06/18 09:18:33;;;;;;;14.77;5.75;;;30.80;53.30;;;;;;5071670;28;20109;-67
2021/06/18 09:21:01;;;;;;;7.88;5.10;;;31.00;53.20;;;;;;5067795;28;20036;-67
2021/06/18 09:23:31;;;;;;;11.68;6.18;;;31.10;52.40;;;;;;5062979;28;20028;-67
2021/06/18 09:26:20;;;;;;;16.83;6.35;;;31.10;52.50;;;;;;5073102;28;20434;-67
2021/06/18 09:29:14;;;;;;;12.88;5.75;;;31.10;53.40;;;;;;5072776;28;20044;-67
2021/06/18 09:31:49;;;;;;;12.90;6.40;;;31.20;53.10;;;;;;5073471;28;20039;-67
2021/06/18 09:37:14;;;;;;;10.63;5.88;;;31.30;51.10;;;;;;5072419;28;20048;-67
2021/06/18 09:40:07;;;;;;;6.43;5.20;;;31.30;51.00;;;;;;5072412;28;20028;-67
2021/06/18 09:42:53;;;;;;;8.65;5.63;;;31.30;51.90;;;;;;5072787;28;20492;-67
2021/06/18 09:45:38;;;;;;;8.32;5.82;;;31.30;51.80;;;;;;5065372;28;20028;-67
2021/06/18 09:48:16;;;;;;;6.47;5.75;;;31.50;52.80;;;;;;5072197;28;20501;-67
2021/06/18 09:50:45;;;;;;;9.23;7.03;;;31.60;51.70;;;;;;5068089;28;20587;-67
2021/06/18 09:53:11;;;;;;;9.02;5.70;;;31.70;51.40;;;;;;5060938;28;20052;-67
2021/06/18 09:55:38;;;;;;;7.70;6.35;;;31.80;50.90;;;;;;5068845;28;20174;-67
2021/06/18 09:58:04;;;;;;;6.63;5.85;;;31.90;51.00;;;;;;5072439;28;20373;-67
2021/06/18 10:00:30;;;;;;;8.00;6.00;;;31.90;51.10;;;;;;5072303;28;20037;-68
2021/06/18 10:02:57;;;;;;;7.35;5.43;;;31.90;50.20;;;;;;5066520;28;20037;-67
2021/06/18 10:05:34;;;;;;;8.93;5.28;;;31.90;50.60;;;;;;5071092;28;20058;-67
2021/06/18 10:08:00;;;;;;;7.80;5.57;;;32.10;48.90;;;;;;5070976;28;20108;-67
2021/06/18 10:10:30;;;;;;;9.70;6.45;;;32.20;49.30;;;;;;5059234;28;20163;-67
2021/06/18 10:12:56;;;;;;;10.13;5.97;;;32.30;49.30;;;;;;5066639;28;20063;-67
2021/06/18 10:15:31;;;;;;;7.60;5.90;;;32.40;49.20;;;;;;5073101;28;20047;-67
2021/06/18 10:17:58;;;;;;;6.65;5.55;;;32.50;48.50;;;;;;5065504;28;20097;-68
2021/06/18 10:20:29;;;;;;;10.93;5.97;;;32.60;49.00;;;;;;5069428;28;20033;-67
2021/06/18 10:23:16;;;;;;;6.53;5.13;;;32.80;48.40;;;;;;5069788;28;20029;-68
2021/06/18 10:26:00;;;;;;;8.77;5.70;;;32.90;47.40;;;;;;5071349;28;20040;-68
2021/06/18 10:28:34;;;;;;;6.22;5.45;;;33.00;46.50;;;;;;5063017;28;20037;-67
2021/06/18 10:31:02;;;;;;;11.73;5.60;;;33.00;46.00;;;;;;5071065;28;20021;-67
2021/06/18 10:33:27;;;;;;;7.47;5.22;;;33.00;46.30;;;;;;5071685;28;20024;-67
2021/06/18 10:36:06;;;;;;;9.23;5.38;;;33.00;46.30;;;;;;5072546;28;20044;-67
2021/06/18 10:38:47;;;;;;;6.85;4.60;;;33.10;46.20;;;;;;5072361;28;20025;-68
2021/06/18 10:41:13;;;;;;;8.50;4.43;;;33.10;45.40;;;;;;5071027;28;20039;-67
2021/06/18 10:43:47;;;;;;;7.65;4.60;;;33.10;44.20;;;;;;5071588;28;20021;-68
2021/06/18 10:46:25;;;;;;;7.75;4.82;;;33.20;43.80;;;;;;5070975;28;20036;-67
2021/06/18 10:48:50;;;;;;;7.43;4.30;;;33.40;43.40;;;;;;5071834;28;20033;-68
2021/06/18 10:51:41;;;;;;;7.78;3.80;;;33.40;43.30;;;;;;5071019;28;20036;-68
2021/06/18 10:54:50;;;;;;;6.97;3.65;;;33.50;41.40;;;;;;5057443;28;20127;-67
2021/06/18 10:57:24;;;;;;;4.75;4.15;;;33.60;40.80;;;;;;5041515;28;20036;-67
2021/06/18 11:00:16;;;;;;;8.00;4.60;;;33.80;40.20;;;;;;5071849;28;20111;-67
2021/06/18 11:02:44;;;;;;;6.13;4.38;;;33.90;41.30;;;;;;5071293;28;20036;-67
2021/06/18 11:05:19;;;;;;;4.35;3.95;;;34.00;41.00;;;;;;5070870;28;20029;-67
2021/06/18 11:07:46;;;;;;;3.85;3.53;;;34.00;40.00;;;;;;5069524;28;20040;-67
2021/06/18 11:10:27;;;;;;;3.78;3.42;;;34.00;39.20;;;;;;5069584;28;20028;-67
2021/06/18 11:13:05;;;;;;;5.85;4.05;;;34.00;39.80;;;;;;5071570;28;20513;-68
2021/06/18 11:15:31;;;;;;;4.70;3.35;;;34.10;38.90;;;;;;5070453;28;20036;-67
2021/06/18 11:18:01;;;;;;;3.35;2.60;;;34.30;35.40;;;;;;5070071;28;20038;-67
2021/06/18 11:20:33;;;;;;;6.75;3.25;;;34.30;35.60;;;;;;5069091;28;20124;-67
2021/06/18 11:23:12;;;;;;;2.92;2.72;;;34.50;37.20;;;;;;5071381;28;20481;-68
2021/06/18 11:25:41;;;;;;;4.88;2.47;;;34.60;35.70;;;;;;5071388;28;20044;-68
2021/06/18 11:28:19;;;;;;;3.43;2.53;;;34.70;31.80;;;;;;5070440;28;20032;-68
2021/06/18 11:30:59;;;;;;;3.35;3.05;;;34.80;34.50;;;;;;5068863;28;20525;-68
2021/06/18 11:33:46;;;;;;;2.72;2.53;;;34.80;34.60;;;;;;5070287;28;20558;-68
2021/06/18 11:36:20;;;;;;;2.53;2.30;;;34.90;33.60;;;;;;5056065;28;20048;-68
2021/06/18 11:38:53;;;;;;;5.18;2.20;;;35.00;31.50;;;;;;5070935;28;20056;-68
2021/06/18 11:41:21;;;;;;;3.83;2.72;;;35.10;31.10;;;;;;5069448;28;20028;-68
2021/06/18 11:43:50;;;;;;;3.92;3.38;;;35.20;33.60;;;;;;5071102;28;20033;-68
2021/06/18 11:46:19;;;;;;;6.47;3.57;;;35.30;33.80;;;;;;5068660;28;20095;-69
2021/06/18 11:48:45;;;;;;;4.20;3.80;;;35.30;35.00;;;;;;5070126;28;20382;-68
2021/06/18 11:51:21;;;;;;;12.45;3.60;;;35.20;35.20;;;;;;5069573;28;20051;-68
2021/06/18 11:53:47;;;;;;;6.65;3.75;;;35.30;35.80;;;;;;5062553;28;20045;-68
2021/06/18 11:56:13;;;;;;;3.95;3.45;;;35.30;36.50;;;;;;5065137;28;20115;-68
2021/06/18 11:58:41;;;;;;;5.38;4.15;;;35.20;36.30;;;;;;5070976;28;20096;-68
2021/06/18 12:01:21;;;;;;;7.93;4.05;;;35.30;36.40;;;;;;5061722;28;20501;-68
2021/06/18 12:03:52;;;;;;;8.00;4.13;;;35.40;37.20;;;;;;5070561;28;20111;-68
2021/06/18 12:06:18;;;;;;;11.40;4.28;;;35.40;36.80;;;;;;5072706;28;20048;-68
2021/06/18 12:09:16;;;;;;;4.57;3.58;;;35.40;37.20;;;;;;5071909;28;20318;-69
2021/06/18 12:11:56;;;;;;;5.22;3.70;;;35.30;36.60;;;;;;5019162;28;20037;-68
2021/06/18 12:14:21;;;;;;;;;;;35.30;36.60;;;;;;5074516;28;20024;-70
2021/06/18 12:16:49;;;;;;;5.20;3.58;;;35.40;36.00;;;;;;5074818;28;19916;-69
2021/06/18 12:19:28;;;;;;;5.10;3.65;;;35.50;34.90;;;;;;5071018;28;20033;-69
2021/06/18 12:22:04;;;;;;;5.43;3.47;;;35.70;35.00;;;;;;5073665;28;20033;-70
2021/06/18 12:24:42;;;;;;;4.68;3.13;;;35.70;35.20;;;;;;5073241;28;20055;-69
2021/06/18 12:27:09;;;;;;;6.28;4.00;;;35.80;35.00;;;;;;5074011;28;20028;-69
2021/06/18 12:30:00;;;;;;;5.70;3.92;;;36.00;35.60;;;;;;5073783;28;20029;-69
2021/06/18 12:32:30;;;;;;;3.72;3.20;;;36.10;36.00;;;;;;5073501;28;20477;-69
2021/06/18 12:34:57;;;;;;;5.95;3.80;;;36.20;36.20;;;;;;5074065;28;20039;-69
2021/06/18 12:37:26;;;;;;;3.80;3.10;;;36.40;36.50;;;;;;5073214;28;20435;-69
2021/06/18 12:40:01;;;;;;;8.60;4.10;;;36.50;35.80;;;;;;5074144;28;20078;-69
2021/06/18 12:42:51;;;;;;;4.85;3.70;;;36.70;34.60;;;;;;5073076;28;20052;-69
2021/06/18 12:45:21;;;;;;;;;;;36.80;34.60;;;;;;5072385;28;20371;-69
2021/06/18 12:47:52;;;;;;;4.03;3.70;;;36.90;33.80;;;;;;5073849;28;20410;-69
2021/06/18 12:50:40;;;;;;;7.10;3.92;;;36.90;34.40;;;;;;5071692;28;20134;-70
2021/06/18 12:53:11;;;;;;;6.30;3.30;;;36.90;34.90;;;;;;5073895;28;20508;-69
2021/06/18 12:55:51;;;;;;;9.63;4.10;;;37.00;35.20;;;;;;5073782;28;20056;-69
2021/06/18 12:58:19;;;;;;;8.15;4.03;;;36.90;34.50;;;;;;5073706;28;20082;-69
2021/06/18 13:00:57;;;;;;;4.85;3.67;;;36.90;34.50;;;;;;5074557;28;20074;-69